sensor_id;sensor_type;location;lat;lon;timestamp;temperature;humidity
52016;DHT22;38032;53.326;6.472;2023-05-29T00:01:46;9.70;99.90
52016;DHT22;38032;53.326;6.472;2023-05-29T00:04:12;9.80;99.90
52016;DHT22;38032;53.326;6.472;2023-05-29T00:06:38;9.80;99.90
52016;DHT22;38032;53.326;6.472;2023-05-29T00:09:04;9.70;99.90
52016;DHT22;38032;53.326;6.472;2023-05-29T00:11:30;9.70;99.90
52016;DHT22;38032;53.326;6.472;2023-05-29T00:13:56;9.70;99.90
52016;DHT22;38032;53.326;6.472;2023-05-29T00:16:23;9.70;99.90
52016;DHT22;38032;53.326;6.472;2023-05-29T00:18:50;9.60;99.90
52016;DHT22;38032;53.326;6.472;2023-05-29T00:21:17;9.70;99.90
52016;DHT22;38032;53.326;6.472;2023-05-29T00:23:43;9.70;99.90
52016;DHT22;38032;53.326;6.472;2023-05-29T00:26:09;9.60;99.90
52016;DHT22;38032;53.326;6.472;2023-05-29T00:28:35;9.70;99.90
52016;DHT22;38032;53.326;6.472;2023-05-29T00:31:02;9.70;99.90
52016;DHT22;38032;53.326;6.472;2023-05-29T00:33:28;9.70;99.90
52016;DHT22;38032;53.326;6.472;2023-05-29T00:35:53;9.60;99.90
52016;DHT22;38032;53.326;6.472;2023-05-29T00:38:19;9.70;99.90
52016;DHT22;38032;53.326;6.472;2023-05-29T00:40:45;9.70;99.90
52016;DHT22;38032;53.326;6.472;2023-05-29T00:43:11;9.80;99.90
52016;DHT22;38032;53.326;6.472;2023-05-29T00:45:37;9.70;99.90
52016;DHT22;38032;53.326;6.472;2023-05-29T00:48:04;9.70;99.90
52016;DHT22;38032;53.326;6.472;2023-05-29T00:50:30;9.60;99.90
52016;DHT22;38032;53.326;6.472;2023-05-29T00:52:59;9.80;99.90
52016;DHT22;38032;53.326;6.472;2023-05-29T00:55:28;9.80;99.90
52016;DHT22;38032;53.326;6.472;2023-05-29T00:57:54;9.90;99.90
52016;DHT22;38032;53.326;6.472;2023-05-29T01:00:21;9.80;99.90
52016;DHT22;38032;53.326;6.472;2023-05-29T01:02:47;9.70;99.90
52016;DHT22;38032;53.326;6.472;2023-05-29T01:05:14;9.80;99.90
52016;DHT22;38032;53.326;6.472;2023-05-29T01:07:42;9.80;99.90
52016;DHT22;38032;53.326;6.472;2023-05-29T01:10:08;9.90;99.90
52016;DHT22;38032;53.326;6.472;2023-05-29T01:12:43;9.80;99.90
52016;DHT22;38032;53.326;6.472;2023-05-29T01:15:24;9.70;99.90
52016;DHT22;38032;53.326;6.472;2023-05-29T01:18:02;9.90;99.90
52016;DHT22;38032;53.326;6.472;2023-05-29T01:20:42;10.00;99.90
52016;DHT22;38032;53.326;6.472;2023-05-29T01:23:20;10.00;99.90
52016;DHT22;38032;53.326;6.472;2023-05-29T01:26:05;10.20;99.90
52016;DHT22;38032;53.326;6.472;2023-05-29T01:28:37;10.30;99.90
52016;DHT22;38032;53.326;6.472;2023-05-29T01:31:07;10.30;99.90
52016;DHT22;38032;53.326;6.472;2023-05-29T01:33:33;10.30;99.90
52016;DHT22;38032;53.326;6.472;2023-05-29T01:35:59;10.40;99.90
52016;DHT22;38032;53.326;6.472;2023-05-29T01:38:25;10.50;99.90
52016;DHT22;38032;53.326;6.472;2023-05-29T01:40:51;10.40;99.90
52016;DHT22;38032;53.326;6.472;2023-05-29T01:43:17;10.40;99.90
52016;DHT22;38032;53.326;6.472;2023-05-29T01:45:43;10.40;99.90
52016;DHT22;38032;53.326;6.472;2023-05-29T01:48:09;10.40;99.90
52016;DHT22;38032;53.326;6.472;2023-05-29T01:50:35;10.30;99.90
52016;DHT22;38032;53.326;6.472;2023-05-29T01:53:02;10.30;99.90
52016;DHT22;38032;53.326;6.472;2023-05-29T01:55:28;10.20;99.90
52016;DHT22;38032;53.326;6.472;2023-05-29T01:57:54;10.20;99.90
52016;DHT22;38032;53.326;6.472;2023-05-29T02:00:21;10.20;99.90
52016;DHT22;38032;53.326;6.472;2023-05-29T02:02:47;10.10;99.90
52016;DHT22;38032;53.326;6.472;2023-05-29T02:05:12;10.10;99.90
52016;DHT22;38032;53.326;6.472;2023-05-29T02:07:38;10.00;99.90
52016;DHT22;38032;53.326;6.472;2023-05-29T02:10:05;10.00;99.90
52016;DHT22;38032;53.326;6.472;2023-05-29T02:12:31;10.10;99.90
52016;DHT22;38032;53.326;6.472;2023-05-29T02:14:57;10.00;99.90
52016;DHT22;38032;53.326;6.472;2023-05-29T02:17:23;10.00;99.90
52016;DHT22;38032;53.326;6.472;2023-05-29T02:19:50;10.00;99.90
52016;DHT22;38032;53.326;6.472;2023-05-29T02:22:17;10.00;99.90
52016;DHT22;38032;53.326;6.472;2023-05-29T02:24:43;10.10;99.90
52016;DHT22;38032;53.326;6.472;2023-05-29T02:27:09;10.00;99.90
52016;DHT22;38032;53.326;6.472;2023-05-29T02:29:35;10.00;99.90
52016;DHT22;38032;53.326;6.472;2023-05-29T02:32:01;10.10;99.90
52016;DHT22;38032;53.326;6.472;2023-05-29T02:34:27;10.00;99.90
52016;DHT22;38032;53.326;6.472;2023-05-29T02:36:53;10.00;99.90
52016;DHT22;38032;53.326;6.472;2023-05-29T02:39:19;10.00;99.90
52016;DHT22;38032;53.326;6.472;2023-05-29T02:41:45;10.10;99.90
52016;DHT22;38032;53.326;6.472;2023-05-29T02:44:11;10.10;99.90
52016;DHT22;38032;53.326;6.472;2023-05-29T02:46:36;10.10;99.90
52016;DHT22;38032;53.326;6.472;2023-05-29T02:49:02;10.20;99.90
52016;DHT22;38032;53.326;6.472;2023-05-29T02:51:28;10.20;99.90
52016;DHT22;38032;53.326;6.472;2023-05-29T02:53:55;10.20;99.90
52016;DHT22;38032;53.326;6.472;2023-05-29T02:56:21;10.30;99.90
52016;DHT22;38032;53.326;6.472;2023-05-29T02:58:50;10.30;99.90
52016;DHT22;38032;53.326;6.472;2023-05-29T03:01:16;10.30;99.90
52016;DHT22;38032;53.326;6.472;2023-05-29T03:03:42;10.40;99.90
52016;DHT22;38032;53.326;6.472;2023-05-29T03:06:08;10.20;99.90
52016;DHT22;38032;53.326;6.472;2023-05-29T03:08:36;10.30;99.90
52016;DHT22;38032;53.326;6.472;2023-05-29T03:11:11;10.40;99.90
52016;DHT22;38032;53.326;6.472;2023-05-29T03:13:37;10.30;99.90
52016;DHT22;38032;53.326;6.472;2023-05-29T03:16:04;10.30;99.90
52016;DHT22;38032;53.326;6.472;2023-05-29T03:18:30;10.30;99.90
52016;DHT22;38032;53.326;6.472;2023-05-29T03:20:56;10.30;99.90
52016;DHT22;38032;53.326;6.472;2023-05-29T03:23:21;10.40;99.90
52016;DHT22;38032;53.326;6.472;2023-05-29T03:25:47;10.40;99.90
52016;DHT22;38032;53.326;6.472;2023-05-29T03:28:13;10.30;99.90
52016;DHT22;38032;53.326;6.472;2023-05-29T03:30:39;10.40;99.90
52016;DHT22;38032;53.326;6.472;2023-05-29T03:33:05;10.40;99.90
52016;DHT22;38032;53.326;6.472;2023-05-29T03:35:31;10.40;99.90
52016;DHT22;38032;53.326;6.472;2023-05-29T03:37:57;10.40;99.90
52016;DHT22;38032;53.326;6.472;2023-05-29T03:40:23;10.40;99.90
52016;DHT22;38032;53.326;6.472;2023-05-29T03:42:49;10.40;99.90
52016;DHT22;38032;53.326;6.472;2023-05-29T03:45:15;10.50;99.90
52016;DHT22;38032;53.326;6.472;2023-05-29T03:47:41;10.50;99.90
52016;DHT22;38032;53.326;6.472;2023-05-29T03:50:07;10.50;99.90
52016;DHT22;38032;53.326;6.472;2023-05-29T03:52:33;10.50;99.90
52016;DHT22;38032;53.326;6.472;2023-05-29T03:54:59;10.50;99.90
52016;DHT22;38032;53.326;6.472;2023-05-29T03:57:25;10.50;99.90
52016;DHT22;38032;53.326;6.472;2023-05-29T03:59:52;10.50;99.90
52016;DHT22;38032;53.326;6.472;2023-05-29T04:02:18;10.60;99.90
52016;DHT22;38032;53.326;6.472;2023-05-29T04:04:44;10.50;99.90
52016;DHT22;38032;53.326;6.472;2023-05-29T04:07:10;10.50;99.90
52016;DHT22;38032;53.326;6.472;2023-05-29T04:09:36;10.50;99.90
52016;DHT22;38032;53.326;6.472;2023-05-29T04:12:03;10.50;99.90
52016;DHT22;38032;53.326;6.472;2023-05-29T04:14:29;10.50;99.90
52016;DHT22;38032;53.326;6.472;2023-05-29T04:16:54;10.50;99.90
52016;DHT22;38032;53.326;6.472;2023-05-29T04:19:20;10.50;99.90
52016;DHT22;38032;53.326;6.472;2023-05-29T04:21:46;10.60;99.90
52016;DHT22;38032;53.326;6.472;2023-05-29T04:24:14;10.60;99.90
52016;DHT22;38032;53.326;6.472;2023-05-29T04:26:40;10.60;99.90
52016;DHT22;38032;53.326;6.472;2023-05-29T04:29:08;10.60;99.90
52016;DHT22;38032;53.326;6.472;2023-05-29T04:31:34;10.70;99.90
52016;DHT22;38032;53.326;6.472;2023-05-29T04:34:02;10.60;99.90
52016;DHT22;38032;53.326;6.472;2023-05-29T04:36:30;10.60;99.90
52016;DHT22;38032;53.326;6.472;2023-05-29T04:38:58;10.70;99.90
52016;DHT22;38032;53.326;6.472;2023-05-29T04:41:24;10.70;99.90
52016;DHT22;38032;53.326;6.472;2023-05-29T04:43:56;10.60;99.90
52016;DHT22;38032;53.326;6.472;2023-05-29T04:46:22;10.60;99.90
52016;DHT22;38032;53.326;6.472;2023-05-29T04:48:50;10.60;99.90
52016;DHT22;38032;53.326;6.472;2023-05-29T04:51:20;10.60;99.90
52016;DHT22;38032;53.326;6.472;2023-05-29T04:53:47;10.60;99.90
52016;DHT22;38032;53.326;6.472;2023-05-29T04:56:14;10.60;99.90
52016;DHT22;38032;53.326;6.472;2023-05-29T04:58:41;10.60;99.90
52016;DHT22;38032;53.326;6.472;2023-05-29T05:01:07;10.60;99.90
52016;DHT22;38032;53.326;6.472;2023-05-29T05:03:34;10.60;99.90
52016;DHT22;38032;53.326;6.472;2023-05-29T05:06:01;10.70;99.90
52016;DHT22;38032;53.326;6.472;2023-05-29T05:08:29;10.70;99.90
52016;DHT22;38032;53.326;6.472;2023-05-29T05:10:55;10.70;99.90
52016;DHT22;38032;53.326;6.472;2023-05-29T05:13:21;10.70;99.90
52016;DHT22;38032;53.326;6.472;2023-05-29T05:15:47;10.80;99.90
52016;DHT22;38032;53.326;6.472;2023-05-29T05:18:13;10.80;99.90
52016;DHT22;38032;53.326;6.472;2023-05-29T05:20:39;10.80;99.90
52016;DHT22;38032;53.326;6.472;2023-05-29T05:23:05;10.90;99.90
52016;DHT22;38032;53.326;6.472;2023-05-29T05:25:31;10.90;99.90
52016;DHT22;38032;53.326;6.472;2023-05-29T05:27:58;10.90;99.90
52016;DHT22;38032;53.326;6.472;2023-05-29T05:30:24;10.90;99.90
52016;DHT22;38032;53.326;6.472;2023-05-29T05:32:50;11.00;99.90
52016;DHT22;38032;53.326;6.472;2023-05-29T05:35:16;11.20;99.90
52016;DHT22;38032;53.326;6.472;2023-05-29T05:37:42;11.20;99.90
52016;DHT22;38032;53.326;6.472;2023-05-29T05:40:08;11.10;99.90
52016;DHT22;38032;53.326;6.472;2023-05-29T05:42:34;11.30;99.90
52016;DHT22;38032;53.326;6.472;2023-05-29T05:45:01;11.30;99.90
52016;DHT22;38032;53.326;6.472;2023-05-29T05:47:27;11.20;99.90
52016;DHT22;38032;53.326;6.472;2023-05-29T05:49:53;11.30;99.90
52016;DHT22;38032;53.326;6.472;2023-05-29T05:52:20;11.30;99.90
52016;DHT22;38032;53.326;6.472;2023-05-29T05:54:46;11.40;99.90
52016;DHT22;38032;53.326;6.472;2023-05-29T05:57:11;11.40;99.90
52016;DHT22;38032;53.326;6.472;2023-05-29T05:59:37;11.50;99.90
52016;DHT22;38032;53.326;6.472;2023-05-29T06:02:03;11.50;99.90
52016;DHT22;38032;53.326;6.472;2023-05-29T06:04:30;11.50;99.90
52016;DHT22;38032;53.326;6.472;2023-05-29T06:06:56;11.60;99.90
52016;DHT22;38032;53.326;6.472;2023-05-29T06:09:22;11.60;99.90
52016;DHT22;38032;53.326;6.472;2023-05-29T06:11:48;11.40;99.90
52016;DHT22;38032;53.326;6.472;2023-05-29T06:14:16;11.70;99.90
52016;DHT22;38032;53.326;6.472;2023-05-29T06:16:42;11.70;99.90
52016;DHT22;38032;53.326;6.472;2023-05-29T06:19:09;11.80;99.90
52016;DHT22;38032;53.326;6.472;2023-05-29T06:21:35;11.80;99.90
52016;DHT22;38032;53.326;6.472;2023-05-29T06:24:01;11.90;99.90
52016;DHT22;38032;53.326;6.472;2023-05-29T06:26:27;11.90;99.90
52016;DHT22;38032;53.326;6.472;2023-05-29T06:28:53;11.90;99.90
52016;DHT22;38032;53.326;6.472;2023-05-29T06:31:19;11.90;99.90
52016;DHT22;38032;53.326;6.472;2023-05-29T06:33:46;12.00;99.90
52016;DHT22;38032;53.326;6.472;2023-05-29T06:36:12;12.00;99.90
52016;DHT22;38032;53.326;6.472;2023-05-29T06:38:39;12.00;99.90
52016;DHT22;38032;53.326;6.472;2023-05-29T06:41:05;12.10;99.90
52016;DHT22;38032;53.326;6.472;2023-05-29T06:43:31;12.10;99.90
52016;DHT22;38032;53.326;6.472;2023-05-29T06:45:57;12.20;99.90
52016;DHT22;38032;53.326;6.472;2023-05-29T06:48:23;12.20;99.90
52016;DHT22;38032;53.326;6.472;2023-05-29T06:50:49;12.10;99.90
52016;DHT22;38032;53.326;6.472;2023-05-29T06:53:15;12.10;99.90
52016;DHT22;38032;53.326;6.472;2023-05-29T06:55:41;12.10;99.90
52016;DHT22;38032;53.326;6.472;2023-05-29T06:58:07;12.20;99.90
52016;DHT22;38032;53.326;6.472;2023-05-29T07:00:33;12.20;99.90
52016;DHT22;38032;53.326;6.472;2023-05-29T07:02:59;12.30;99.90
52016;DHT22;38032;53.326;6.472;2023-05-29T07:05:26;12.30;99.90
52016;DHT22;38032;53.326;6.472;2023-05-29T07:07:52;12.20;99.90
52016;DHT22;38032;53.326;6.472;2023-05-29T07:10:18;12.30;99.90
52016;DHT22;38032;53.326;6.472;2023-05-29T07:12:44;12.20;99.90
52016;DHT22;38032;53.326;6.472;2023-05-29T07:15:10;12.40;99.90
52016;DHT22;38032;53.326;6.472;2023-05-29T07:17:36;12.40;99.90
52016;DHT22;38032;53.326;6.472;2023-05-29T07:20:02;12.50;99.90
52016;DHT22;38032;53.326;6.472;2023-05-29T07:22:28;12.40;99.90
52016;DHT22;38032;53.326;6.472;2023-05-29T07:24:54;12.40;99.90
52016;DHT22;38032;53.326;6.472;2023-05-29T07:27:20;12.40;99.90
52016;DHT22;38032;53.326;6.472;2023-05-29T07:29:46;12.60;99.90
52016;DHT22;38032;53.326;6.472;2023-05-29T07:32:11;12.60;99.90
52016;DHT22;38032;53.326;6.472;2023-05-29T07:34:37;12.70;99.90
52016;DHT22;38032;53.326;6.472;2023-05-29T07:37:05;12.70;99.90
52016;DHT22;38032;53.326;6.472;2023-05-29T07:39:33;12.70;99.90
52016;DHT22;38032;53.326;6.472;2023-05-29T07:42:00;12.80;99.90
52016;DHT22;38032;53.326;6.472;2023-05-29T07:44:27;12.80;99.90
52016;DHT22;38032;53.326;6.472;2023-05-29T07:46:53;12.80;99.90
52016;DHT22;38032;53.326;6.472;2023-05-29T07:49:20;12.90;99.90
52016;DHT22;38032;53.326;6.472;2023-05-29T07:51:46;13.00;99.90
52016;DHT22;38032;53.326;6.472;2023-05-29T07:54:12;13.20;99.90
52016;DHT22;38032;53.326;6.472;2023-05-29T07:56:38;13.20;99.90
52016;DHT22;38032;53.326;6.472;2023-05-29T07:59:06;13.30;99.90
52016;DHT22;38032;53.326;6.472;2023-05-29T08:01:35;13.30;99.90
52016;DHT22;38032;53.326;6.472;2023-05-29T08:04:00;13.20;99.90
52016;DHT22;38032;53.326;6.472;2023-05-29T08:06:26;13.20;99.90
52016;DHT22;38032;53.326;6.472;2023-05-29T08:08:52;13.30;99.90
52016;DHT22;38032;53.326;6.472;2023-05-29T08:11:19;13.30;99.90
52016;DHT22;38032;53.326;6.472;2023-05-29T08:13:45;13.40;99.90
52016;DHT22;38032;53.326;6.472;2023-05-29T08:16:11;13.50;99.90
52016;DHT22;38032;53.326;6.472;2023-05-29T08:18:39;13.60;99.90
52016;DHT22;38032;53.326;6.472;2023-05-29T08:21:05;13.60;99.90
52016;DHT22;38032;53.326;6.472;2023-05-29T08:23:32;13.60;99.90
52016;DHT22;38032;53.326;6.472;2023-05-29T08:25:58;13.60;99.90
52016;DHT22;38032;53.326;6.472;2023-05-29T08:28:24;13.60;99.90
52016;DHT22;38032;53.326;6.472;2023-05-29T08:30:52;13.60;99.90
52016;DHT22;38032;53.326;6.472;2023-05-29T08:33:18;13.70;99.90
52016;DHT22;38032;53.326;6.472;2023-05-29T08:35:44;13.60;99.90
52016;DHT22;38032;53.326;6.472;2023-05-29T08:38:09;13.60;99.90
52016;DHT22;38032;53.326;6.472;2023-05-29T08:40:36;13.70;99.90
52016;DHT22;38032;53.326;6.472;2023-05-29T08:43:12;13.70;99.90
52016;DHT22;38032;53.326;6.472;2023-05-29T08:45:42;13.70;99.90
52016;DHT22;38032;53.326;6.472;2023-05-29T08:48:10;13.70;99.90
52016;DHT22;38032;53.326;6.472;2023-05-29T08:50:44;13.60;99.90
52016;DHT22;38032;53.326;6.472;2023-05-29T08:53:13;13.60;99.90
52016;DHT22;38032;53.326;6.472;2023-05-29T08:55:39;13.50;99.90
52016;DHT22;38032;53.326;6.472;2023-05-29T08:58:05;13.50;99.90
52016;DHT22;38032;53.326;6.472;2023-05-29T09:00:33;13.40;99.90
52016;DHT22;38032;53.326;6.472;2023-05-29T09:02:59;13.40;99.90
52016;DHT22;38032;53.326;6.472;2023-05-29T09:05:25;13.40;99.90
52016;DHT22;38032;53.326;6.472;2023-05-29T09:07:53;13.50;99.90
52016;DHT22;38032;53.326;6.472;2023-05-29T09:10:19;13.50;99.90
52016;DHT22;38032;53.326;6.472;2023-05-29T09:12:46;13.50;99.90
52016;DHT22;38032;53.326;6.472;2023-05-29T09:15:18;13.60;99.90
52016;DHT22;38032;53.326;6.472;2023-05-29T09:17:50;13.80;99.90
52016;DHT22;38032;53.326;6.472;2023-05-29T09:20:17;14.00;99.90
52016;DHT22;38032;53.326;6.472;2023-05-29T09:23:01;14.20;99.90
52016;DHT22;38032;53.326;6.472;2023-05-29T09:25:31;14.50;99.90
52016;DHT22;38032;53.326;6.472;2023-05-29T09:28:02;14.60;99.90
52016;DHT22;38032;53.326;6.472;2023-05-29T09:30:43;14.60;99.90
52016;DHT22;38032;53.326;6.472;2023-05-29T09:33:11;14.80;99.90
52016;DHT22;38032;53.326;6.472;2023-05-29T09:35:38;14.80;99.90
52016;DHT22;38032;53.326;6.472;2023-05-29T09:38:05;14.90;99.90
52016;DHT22;38032;53.326;6.472;2023-05-29T09:40:33;15.00;99.90
52016;DHT22;38032;53.326;6.472;2023-05-29T09:43:05;15.00;99.90
52016;DHT22;38032;53.326;6.472;2023-05-29T09:45:33;14.90;99.90
52016;DHT22;38032;53.326;6.472;2023-05-29T09:48:01;15.20;99.90
52016;DHT22;38032;53.326;6.472;2023-05-29T09:50:27;15.80;99.90
52016;DHT22;38032;53.326;6.472;2023-05-29T09:52:56;16.30;99.90
52016;DHT22;38032;53.326;6.472;2023-05-29T09:55:25;16.50;99.90
52016;DHT22;38032;53.326;6.472;2023-05-29T09:57:53;16.90;99.80
52016;DHT22;38032;53.326;6.472;2023-05-29T10:00:20;17.10;98.30
52016;DHT22;38032;53.326;6.472;2023-05-29T10:02:48;17.10;97.00
52016;DHT22;38032;53.326;6.472;2023-05-29T10:05:14;16.90;96.60
52016;DHT22;38032;53.326;6.472;2023-05-29T10:07:46;16.60;96.70
52016;DHT22;38032;53.326;6.472;2023-05-29T10:10:17;16.50;96.00
52016;DHT22;38032;53.326;6.472;2023-05-29T10:12:48;16.30;95.50
52016;DHT22;38032;53.326;6.472;2023-05-29T10:15:16;16.20;95.90
52016;DHT22;38032;53.326;6.472;2023-05-29T10:17:51;16.20;96.10
52016;DHT22;38032;53.326;6.472;2023-05-29T10:20:20;16.30;96.40
52016;DHT22;38032;53.326;6.472;2023-05-29T10:22:49;16.50;96.20
52016;DHT22;38032;53.326;6.472;2023-05-29T10:25:18;16.90;96.20
52016;DHT22;38032;53.326;6.472;2023-05-29T10:27:45;17.10;95.80
52016;DHT22;38032;53.326;6.472;2023-05-29T10:30:21;17.30;95.70
52016;DHT22;38032;53.326;6.472;2023-05-29T10:35:48;17.60;92.90
52016;DHT22;38032;53.326;6.472;2023-05-29T10:38:16;17.60;92.60
52016;DHT22;38032;53.326;6.472;2023-05-29T10:40:44;17.60;92.50
52016;DHT22;38032;53.326;6.472;2023-05-29T10:43:31;17.60;93.10
52016;DHT22;38032;53.326;6.472;2023-05-29T10:45:58;17.50;90.60
52016;DHT22;38032;53.326;6.472;2023-05-29T10:50:55;17.60;91.20
52016;DHT22;38032;53.326;6.472;2023-05-29T10:53:31;17.50;91.00
52016;DHT22;38032;53.326;6.472;2023-05-29T10:55:59;17.20;86.30
52016;DHT22;38032;53.326;6.472;2023-05-29T10:58:26;17.10;91.20
52016;DHT22;38032;53.326;6.472;2023-05-29T11:00:54;17.30;92.10
52016;DHT22;38032;53.326;6.472;2023-05-29T11:03:22;17.10;91.30
52016;DHT22;38032;53.326;6.472;2023-05-29T11:05:56;17.10;92.20
52016;DHT22;38032;53.326;6.472;2023-05-29T11:08:45;17.30;92.90
52016;DHT22;38032;53.326;6.472;2023-05-29T11:11:12;17.60;91.80
52016;DHT22;38032;53.326;6.472;2023-05-29T11:13:39;17.60;91.70
52016;DHT22;38032;53.326;6.472;2023-05-29T11:16:10;17.50;91.50
52016;DHT22;38032;53.326;6.472;2023-05-29T11:18:43;17.40;92.20
52016;DHT22;38032;53.326;6.472;2023-05-29T11:21:23;17.40;91.30
52016;DHT22;38032;53.326;6.472;2023-05-29T11:23:53;17.30;92.90
52016;DHT22;38032;53.326;6.472;2023-05-29T11:26:22;17.30;92.60
52016;DHT22;38032;53.326;6.472;2023-05-29T11:28:48;17.30;93.20
52016;DHT22;38032;53.326;6.472;2023-05-29T11:31:15;17.30;92.10
52016;DHT22;38032;53.326;6.472;2023-05-29T11:33:47;17.30;92.10
52016;DHT22;38032;53.326;6.472;2023-05-29T11:36:15;17.40;92.80
52016;DHT22;38032;53.326;6.472;2023-05-29T11:38:41;17.30;91.30
52016;DHT22;38032;53.326;6.472;2023-05-29T11:41:09;17.20;90.90
52016;DHT22;38032;53.326;6.472;2023-05-29T11:43:35;16.90;91.00
52016;DHT22;38032;53.326;6.472;2023-05-29T11:46:02;16.70;92.90
52016;DHT22;38032;53.326;6.472;2023-05-29T11:48:27;16.70;93.20
52016;DHT22;38032;53.326;6.472;2023-05-29T11:50:53;16.60;92.90
52016;DHT22;38032;53.326;6.472;2023-05-29T11:53:19;16.40;93.40
52016;DHT22;38032;53.326;6.472;2023-05-29T11:55:45;16.30;93.00
52016;DHT22;38032;53.326;6.472;2023-05-29T11:58:11;16.10;93.60
52016;DHT22;38032;53.326;6.472;2023-05-29T12:00:38;16.00;94.20
52016;DHT22;38032;53.326;6.472;2023-05-29T12:03:06;16.10;95.10
52016;DHT22;38032;53.326;6.472;2023-05-29T12:05:48;16.00;93.40
52016;DHT22;38032;53.326;6.472;2023-05-29T12:08:14;15.90;93.10
52016;DHT22;38032;53.326;6.472;2023-05-29T12:10:47;15.70;93.90
52016;DHT22;38032;53.326;6.472;2023-05-29T12:13:14;15.50;94.30
52016;DHT22;38032;53.326;6.472;2023-05-29T12:15:48;15.40;96.60
52016;DHT22;38032;53.326;6.472;2023-05-29T12:18:14;15.50;97.60
52016;DHT22;38032;53.326;6.472;2023-05-29T12:20:41;15.60;97.90
52016;DHT22;38032;53.326;6.472;2023-05-29T12:23:06;15.70;97.30
52016;DHT22;38032;53.326;6.472;2023-05-29T12:25:34;15.70;96.00
52016;DHT22;38032;53.326;6.472;2023-05-29T12:28:02;15.70;95.60
52016;DHT22;38032;53.326;6.472;2023-05-29T12:30:28;15.80;95.90
52016;DHT22;38032;53.326;6.472;2023-05-29T12:32:54;15.80;96.40
52016;DHT22;38032;53.326;6.472;2023-05-29T12:35:21;15.80;96.30
52016;DHT22;38032;53.326;6.472;2023-05-29T12:37:55;15.90;96.90
52016;DHT22;38032;53.326;6.472;2023-05-29T12:40:23;16.00;96.30
52016;DHT22;38032;53.326;6.472;2023-05-29T12:42:58;16.10;95.60
52016;DHT22;38032;53.326;6.472;2023-05-29T12:45:26;16.10;95.80
52016;DHT22;38032;53.326;6.472;2023-05-29T12:47:53;16.20;95.80
52016;DHT22;38032;53.326;6.472;2023-05-29T12:50:21;16.20;95.70
52016;DHT22;38032;53.326;6.472;2023-05-29T12:52:57;16.20;94.40
52016;DHT22;38032;53.326;6.472;2023-05-29T12:55:24;16.10;94.50
52016;DHT22;38032;53.326;6.472;2023-05-29T12:57:50;16.00;93.40
52016;DHT22;38032;53.326;6.472;2023-05-29T13:00:17;15.80;92.80
52016;DHT22;38032;53.326;6.472;2023-05-29T13:02:44;15.80;94.80
52016;DHT22;38032;53.326;6.472;2023-05-29T13:05:10;15.70;95.40
52016;DHT22;38032;53.326;6.472;2023-05-29T13:07:36;15.70;95.60
52016;DHT22;38032;53.326;6.472;2023-05-29T13:10:02;15.60;94.40
52016;DHT22;38032;53.326;6.472;2023-05-29T13:12:28;15.60;93.20
52016;DHT22;38032;53.326;6.472;2023-05-29T13:14:54;15.70;93.30
52016;DHT22;38032;53.326;6.472;2023-05-29T13:17:22;15.70;92.60
52016;DHT22;38032;53.326;6.472;2023-05-29T13:19:48;15.70;93.90
52016;DHT22;38032;53.326;6.472;2023-05-29T13:22:14;15.70;94.20
52016;DHT22;38032;53.326;6.472;2023-05-29T13:24:41;15.50;94.40
52016;DHT22;38032;53.326;6.472;2023-05-29T13:27:07;15.50;94.60
52016;DHT22;38032;53.326;6.472;2023-05-29T13:29:33;15.40;95.00
52016;DHT22;38032;53.326;6.472;2023-05-29T13:31:59;15.30;93.40
52016;DHT22;38032;53.326;6.472;2023-05-29T13:34:25;15.30;93.60
52016;DHT22;38032;53.326;6.472;2023-05-29T13:36:55;15.20;94.60
52016;DHT22;38032;53.326;6.472;2023-05-29T13:39:21;15.20;95.80
52016;DHT22;38032;53.326;6.472;2023-05-29T13:41:47;15.30;96.60
52016;DHT22;38032;53.326;6.472;2023-05-29T13:44:13;15.40;96.40
52016;DHT22;38032;53.326;6.472;2023-05-29T13:46:39;15.50;95.80
52016;DHT22;38032;53.326;6.472;2023-05-29T13:49:05;15.70;95.60
52016;DHT22;38032;53.326;6.472;2023-05-29T13:51:33;15.70;95.70
52016;DHT22;38032;53.326;6.472;2023-05-29T13:54:01;15.70;95.70
52016;DHT22;38032;53.326;6.472;2023-05-29T13:56:28;15.70;94.60
52016;DHT22;38032;53.326;6.472;2023-05-29T13:58:54;15.60;93.50
52016;DHT22;38032;53.326;6.472;2023-05-29T14:01:20;15.60;93.50
52016;DHT22;38032;53.326;6.472;2023-05-29T14:03:46;15.40;92.30
52016;DHT22;38032;53.326;6.472;2023-05-29T14:06:12;15.40;92.40
52016;DHT22;38032;53.326;6.472;2023-05-29T14:08:38;15.40;93.40
52016;DHT22;38032;53.326;6.472;2023-05-29T14:11:04;15.30;90.90
52016;DHT22;38032;53.326;6.472;2023-05-29T14:13:30;15.30;90.50
52016;DHT22;38032;53.326;6.472;2023-05-29T14:15:56;15.30;90.90
52016;DHT22;38032;53.326;6.472;2023-05-29T14:18:23;15.40;91.40
52016;DHT22;38032;53.326;6.472;2023-05-29T14:20:49;15.40;92.30
52016;DHT22;38032;53.326;6.472;2023-05-29T14:23:18;15.40;91.60
52016;DHT22;38032;53.326;6.472;2023-05-29T14:25:44;15.50;91.70
52016;DHT22;38032;53.326;6.472;2023-05-29T14:28:10;15.60;92.20
52016;DHT22;38032;53.326;6.472;2023-05-29T14:30:37;15.60;92.30
52016;DHT22;38032;53.326;6.472;2023-05-29T14:33:03;15.60;93.30
52016;DHT22;38032;53.326;6.472;2023-05-29T14:35:29;15.70;94.10
52016;DHT22;38032;53.326;6.472;2023-05-29T14:37:56;15.60;93.10
52016;DHT22;38032;53.326;6.472;2023-05-29T14:40:22;15.60;93.80
52016;DHT22;38032;53.326;6.472;2023-05-29T14:42:48;15.60;94.50
52016;DHT22;38032;53.326;6.472;2023-05-29T14:45:14;15.60;94.60
52016;DHT22;38032;53.326;6.472;2023-05-29T14:47:40;15.50;93.30
52016;DHT22;38032;53.326;6.472;2023-05-29T14:50:07;15.30;91.80
52016;DHT22;38032;53.326;6.472;2023-05-29T14:52:33;15.10;93.30
52016;DHT22;38032;53.326;6.472;2023-05-29T14:55:01;15.10;94.10
52016;DHT22;38032;53.326;6.472;2023-05-29T14:57:28;15.00;94.60
52016;DHT22;38032;53.326;6.472;2023-05-29T14:59:55;14.90;94.00
52016;DHT22;38032;53.326;6.472;2023-05-29T15:02:21;14.90;94.80
52016;DHT22;38032;53.326;6.472;2023-05-29T15:04:47;14.90;95.10
52016;DHT22;38032;53.326;6.472;2023-05-29T15:07:13;14.90;96.00
52016;DHT22;38032;53.326;6.472;2023-05-29T15:09:39;14.90;95.60
52016;DHT22;38032;53.326;6.472;2023-05-29T15:12:05;15.00;95.30
52016;DHT22;38032;53.326;6.472;2023-05-29T15:14:32;15.00;95.30
52016;DHT22;38032;53.326;6.472;2023-05-29T15:16:58;15.00;95.90
52016;DHT22;38032;53.326;6.472;2023-05-29T15:19:25;15.10;96.10
52016;DHT22;38032;53.326;6.472;2023-05-29T15:21:51;15.10;96.60
52016;DHT22;38032;53.326;6.472;2023-05-29T15:24:17;15.20;96.40
52016;DHT22;38032;53.326;6.472;2023-05-29T15:26:44;15.10;94.60
52016;DHT22;38032;53.326;6.472;2023-05-29T15:29:10;14.90;94.70
52016;DHT22;38032;53.326;6.472;2023-05-29T15:31:36;14.80;95.50
52016;DHT22;38032;53.326;6.472;2023-05-29T15:34:02;14.80;96.40
52016;DHT22;38032;53.326;6.472;2023-05-29T15:36:28;14.90;97.10
52016;DHT22;38032;53.326;6.472;2023-05-29T15:38:55;14.90;97.10